Aviation Digital Data Service (ADDS)

Output produced by METARs form (2319 UTC 20 January 2019)
found at http://www.aviationweather.gov/metar/data/
 
Forecast for: VTCH (MAE HONG SON/MUA, TH)
Text: TAF VTCH 201700Z 2018/2118 33005KT 9999 FEW025
Forecast period: 1800 to 2100 UTC 20 January 2019
Forecast type: FROM: standard forecast or significant change
Winds: from the NNW (330 degrees) at 6 MPH (5 knots; 2.6 m/s)
Visibility: 6 or more miles 10+ km)
Ceiling: at least 12,000 feet AGL
Clouds: few clouds at 2500 feet AGL
Weather: no significant weather forecast for this period
Text: BECMG 2021/2023 2000 BR
Forecast period: 2100 UTC 20 January 2019 to 0100 UTC 21 January 2019
Forecast type: BECOMING: Conditions expected to become as follows by 2300 UTC 20 January 2019
Winds: from the NNW (330 degrees) at 6 MPH (5 knots; 2.6 m/s)
Visibility: 1.24 miles (2.00 km)
Ceiling: at least 12,000 feet AGL
Clouds: few clouds at 2500 feet AGL
Weather: BR  (mist)
Text: BECMG 2101/2103 9999 NSW
Forecast period: 0100 to 1800 UTC 21 January 2019
Forecast type: BECOMING: Conditions expected to become as follows by 0300 UTC 21 January 2019
Winds: from the NNW (330 degrees) at 6 MPH (5 knots; 2.6 m/s)
Visibility: 6 or more miles 10+ km)
Ceiling: at least 12,000 feet AGL
Clouds: few clouds at 2500 feet AGL
Weather: NSW  (no significant weather)